Time;durP1;ratioP1;P1;durP2;ratioP2;P2;SDS_P1;SDS_P2;PMS_P1;PMS_P2;Temp;Humidity;BMP_temperature;BMP_pressure;BME280_temperature;BME280_humidity;BME280_pressure;Samples;Min_cycle;Max_cycle;Signal;HPM_P1;HPM_P2
2023/06/02 00:01:49;;;;;;;7.00;5.60;;;15.30;59.70;;;;;;5029480;28;20211;-60
2023/06/02 00:04:17;;;;;;;7.37;5.27;;;15.30;59.90;;;;;;5027940;28;20184;-58
2023/06/02 00:06:45;;;;;;;7.43;5.17;;;15.30;59.90;;;;;;5028366;28;20418;-58
2023/06/02 00:09:11;;;;;;;9.37;5.60;;;15.20;59.90;;;;;;5028000;28;20418;-58
2023/06/02 00:11:38;;;;;;;7.07;5.90;;;15.20;60.10;;;;;;5030966;28;20779;-59
2023/06/02 00:14:07;;;;;;;7.70;5.77;;;15.20;60.10;;;;;;5028022;28;20187;-59
2023/06/02 00:16:41;;;;;;;6.70;5.70;;;15.10;59.90;;;;;;5028375;28;21329;-56
2023/06/02 00:19:07;;;;;;;6.93;5.30;;;15.10;60.10;;;;;;5027983;28;20431;-60
2023/06/02 00:21:36;;;;;;;9.63;5.67;;;15.10;60.40;;;;;;5024196;28;20531;-60
2023/06/02 00:24:02;;;;;;;8.27;5.73;;;15.10;60.60;;;;;;5026464;28;20969;-59
2023/06/02 00:26:28;;;;;;;10.23;5.67;;;15.00;60.90;;;;;;5023935;28;20940;-59
2023/06/02 00:28:55;;;;;;;10.10;6.40;;;15.00;60.90;;;;;;5027089;28;20427;-59
2023/06/02 00:31:22;;;;;;;6.77;5.83;;;14.90;61.10;;;;;;5023312;28;20254;-59
2023/06/02 00:33:48;;;;;;;12.67;6.90;;;14.90;61.40;;;;;;5028179;28;20458;-58
2023/06/02 00:36:13;;;;;;;10.57;6.03;;;14.80;61.60;;;;;;5029000;28;20418;-59
2023/06/02 00:38:41;;;;;;;12.37;6.60;;;14.80;61.90;;;;;;5025129;28;20454;-60
2023/06/02 00:41:07;;;;;;;10.00;6.13;;;14.80;62.40;;;;;;5024551;28;20192;-60
2023/06/02 00:43:33;;;;;;;14.80;6.87;;;14.70;62.60;;;;;;5027932;28;20422;-59
2023/06/02 00:45:58;;;;;;;12.77;6.30;;;14.70;62.80;;;;;;5029348;28;20426;-59
2023/06/02 00:48:24;;;;;;;8.73;6.13;;;14.70;62.90;;;;;;5027042;28;20598;-60
2023/06/02 00:50:50;;;;;;;12.30;6.93;;;14.70;63.20;;;;;;5022777;28;20227;-60
2023/06/02 00:53:16;;;;;;;6.90;5.93;;;14.60;63.40;;;;;;5027745;28;20441;-58
2023/06/02 00:55:42;;;;;;;8.13;5.80;;;14.60;63.70;;;;;;5028549;28;20824;-60
2023/06/02 00:58:13;;;;;;;10.60;7.17;;;14.50;63.90;;;;;;5023955;28;20313;-60
2023/06/02 01:00:42;;;;;;;9.00;6.23;;;14.50;64.50;;;;;;5028651;28;20434;-58
2023/06/02 01:03:08;;;;;;;8.00;6.53;;;14.50;64.90;;;;;;5028463;28;20785;-59
2023/06/02 01:05:36;;;;;;;9.63;5.60;;;14.40;65.40;;;;;;5027333;28;20484;-59
2023/06/02 01:08:04;;;;;;;8.37;6.53;;;14.40;65.90;;;;;;5028461;28;20176;-59
2023/06/02 01:10:31;;;;;;;10.17;5.70;;;14.30;66.30;;;;;;5025510;28;20476;-59
2023/06/02 01:12:57;;;;;;;10.63;6.27;;;14.30;67.10;;;;;;5024657;28;21043;-59
2023/06/02 01:15:23;;;;;;;7.20;5.43;;;14.20;67.30;;;;;;5024891;28;20430;-59
2023/06/02 01:17:51;;;;;;;8.33;5.30;;;14.20;67.10;;;;;;5025641;28;20508;-59
2023/06/02 01:20:21;;;;;;;8.73;5.10;;;14.10;66.90;;;;;;5016930;28;20223;-58
2023/06/02 01:22:56;;;;;;;6.43;5.50;;;14.10;66.80;;;;;;5025031;28;20437;-58
2023/06/02 01:25:23;;;;;;;9.17;6.00;;;14.10;66.50;;;;;;5027950;28;20799;-60
2023/06/02 01:27:50;;;;;;;10.30;5.57;;;14.00;67.10;;;;;;5022335;28;20836;-59
2023/06/02 01:30:17;;;;;;;5.70;5.10;;;14.00;67.70;;;;;;5024060;28;20484;-58
2023/06/02 01:33:10;;;;;;;7.10;5.50;;;14.00;68.00;;;;;;5024547;28;20434;-59
2023/06/02 01:35:42;;;;;;;6.40;5.50;;;13.90;68.50;;;;;;5018197;28;20422;-59
2023/06/02 01:38:09;;;;;;;7.83;6.20;;;13.90;69.20;;;;;;5026634;28;20880;-59
2023/06/02 01:40:36;;;;;;;9.20;5.37;;;13.90;69.70;;;;;;5026289;28;20473;-59
2023/06/02 01:43:03;;;;;;;6.93;5.33;;;13.80;69.70;;;;;;5026296;28;20511;-58
2023/06/02 01:45:30;;;;;;;8.83;5.53;;;13.70;71.10;;;;;;5026493;28;20664;-59
2023/06/02 01:48:07;;;;;;;6.77;5.80;;;13.70;71.80;;;;;;5024810;28;20945;-59
2023/06/02 01:50:34;;;;;;;8.90;6.20;;;13.70;72.80;;;;;;5024123;28;20441;-58
2023/06/02 01:52:59;;;;;;;15.67;6.90;;;13.60;73.50;;;;;;5025191;28;20584;-59
2023/06/02 01:55:25;;;;;;;8.07;6.23;;;13.60;74.30;;;;;;5026044;28;21038;-57
2023/06/02 01:57:52;;;;;;;10.07;6.33;;;13.60;75.70;;;;;;5021364;28;20241;-58
2023/06/02 02:00:19;;;;;;;8.83;5.87;;;13.60;76.50;;;;;;5024412;28;21041;-61
2023/06/02 02:02:45;;;;;;;9.67;7.00;;;13.60;75.70;;;;;;5021409;28;20222;-59
2023/06/02 02:05:11;;;;;;;9.00;6.67;;;13.60;75.80;;;;;;5021416;28;20985;-60
2023/06/02 02:07:41;;;;;;;8.90;6.47;;;13.50;76.20;;;;;;5025773;28;20426;-59
2023/06/02 02:10:08;;;;;;;9.53;6.20;;;13.50;76.30;;;;;;5027558;28;20298;-59
2023/06/02 02:12:34;;;;;;;8.27;6.10;;;13.50;76.50;;;;;;5028414;28;20419;-58
2023/06/02 02:15:00;;;;;;;9.20;6.40;;;13.40;77.40;;;;;;5023332;28;20428;-58
2023/06/02 02:17:26;;;;;;;9.80;6.50;;;13.40;78.00;;;;;;5025033;28;20527;-58
2023/06/02 02:19:55;;;;;;;10.33;6.93;;;13.40;78.60;;;;;;5023336;28;20435;-59
2023/06/02 02:22:24;;;;;;;10.23;6.77;;;13.40;78.70;;;;;;5026798;28;20562;-59
2023/06/02 02:24:49;;;;;;;8.53;7.10;;;13.40;79.80;;;;;;5025866;28;20427;-58
2023/06/02 02:27:15;;;;;;;9.87;6.10;;;13.40;80.30;;;;;;5025287;28;20449;-58
2023/06/02 02:29:41;;;;;;;8.80;6.00;;;13.30;80.20;;;;;;5022781;28;20171;-59
2023/06/02 02:32:07;;;;;;;11.13;6.70;;;13.30;80.70;;;;;;5022841;28;20184;-59
2023/06/02 02:34:33;;;;;;;9.10;6.47;;;13.20;81.60;;;;;;5025831;28;20817;-59
2023/06/02 02:37:01;;;;;;;12.87;6.20;;;13.20;82.50;;;;;;5023544;28;20211;-59
2023/06/02 02:39:30;;;;;;;10.10;6.93;;;13.10;83.10;;;;;;5023301;28;20722;-59
2023/06/02 02:41:56;;;;;;;12.87;6.50;;;13.10;84.40;;;;;;5024429;28;21105;-59
2023/06/02 02:44:22;;;;;;;7.03;6.10;;;13.10;85.40;;;;;;5027758;28;20517;-59
2023/06/02 02:46:47;;;;;;;12.13;6.30;;;13.00;84.90;;;;;;5025724;28;20195;-58
2023/06/02 02:49:13;;;;;;;11.93;6.10;;;13.00;83.40;;;;;;5018579;28;20187;-58
2023/06/02 02:51:39;;;;;;;11.37;7.03;;;13.00;83.50;;;;;;5024837;28;20192;-59
2023/06/02 02:54:05;;;;;;;10.20;6.33;;;12.90;85.00;;;;;;5024796;28;20250;-59
2023/06/02 02:56:30;;;;;;;7.63;6.23;;;12.90;86.00;;;;;;5027573;28;20692;-59
2023/06/02 02:58:59;;;;;;;9.23;6.10;;;12.90;86.30;;;;;;5019784;28;20435;-59
2023/06/02 03:01:26;;;;;;;10.03;6.90;;;12.90;87.80;;;;;;5024985;28;20746;-59
2023/06/02 03:03:53;;;;;;;8.70;6.43;;;12.80;88.60;;;;;;5026810;28;20514;-59
2023/06/02 03:06:19;;;;;;;9.23;6.20;;;12.80;89.20;;;;;;5024051;28;20458;-59
2023/06/02 03:08:45;;;;;;;11.80;5.80;;;12.70;89.70;;;;;;5026274;28;20476;-59
2023/06/02 03:11:11;;;;;;;9.73;5.93;;;12.70;89.20;;;;;;5024579;28;20451;-59
2023/06/02 03:13:37;;;;;;;7.77;6.23;;;12.70;89.50;;;;;;5023189;28;20449;-59
2023/06/02 03:16:03;;;;;;;10.33;7.07;;;12.60;89.70;;;;;;5027862;28;20263;-60
2023/06/02 03:18:29;;;;;;;11.20;7.00;;;12.60;90.80;;;;;;5027222;28;20206;-59
2023/06/02 03:20:57;;;;;;;8.67;6.27;;;12.60;91.20;;;;;;5023291;28;20516;-60
2023/06/02 03:23:23;;;;;;;6.93;5.50;;;12.50;91.20;;;;;;5021682;28;20218;-59
2023/06/02 03:25:49;;;;;;;9.10;5.97;;;12.50;91.60;;;;;;5024401;28;20450;-59
2023/06/02 03:28:15;;;;;;;10.23;6.83;;;12.50;92.30;;;;;;5020501;28;20249;-58
2023/06/02 03:30:40;;;;;;;13.50;6.83;;;12.40;92.70;;;;;;5026615;28;20287;-60
2023/06/02 03:33:06;;;;;;;12.00;6.40;;;12.40;93.00;;;;;;5025242;28;20510;-59
2023/06/02 03:35:31;;;;;;;7.37;6.37;;;12.40;93.70;;;;;;5018194;28;20239;-58
2023/06/02 03:37:57;;;;;;;9.00;6.67;;;12.30;94.20;;;;;;5020820;28;20725;-59
2023/06/02 03:40:23;;;;;;;9.73;6.40;;;12.30;94.40;;;;;;5023739;28;20245;-59
2023/06/02 03:42:49;;;;;;;11.23;6.97;;;12.30;94.80;;;;;;5026731;28;20176;-59
2023/06/02 03:45:14;;;;;;;7.60;6.17;;;12.20;95.30;;;;;;5028038;28;20175;-60
2023/06/02 03:47:40;;;;;;;10.80;6.90;;;12.30;95.70;;;;;;5028531;28;20207;-60
2023/06/02 03:50:06;;;;;;;8.93;6.80;;;12.30;95.70;;;;;;5027677;28;20565;-60
2023/06/02 03:52:31;;;;;;;12.07;7.30;;;12.30;95.70;;;;;;5023495;28;20185;-58
2023/06/02 03:54:57;;;;;;;11.93;7.63;;;12.30;95.40;;;;;;5027446;28;20206;-59
2023/06/02 03:57:23;;;;;;;9.40;6.70;;;12.20;95.50;;;;;;5027895;28;20261;-58
2023/06/02 03:59:49;;;;;;;10.40;6.77;;;12.30;95.90;;;;;;5027956;28;20423;-60
2023/06/02 04:02:14;;;;;;;9.30;5.87;;;12.30;95.90;;;;;;5030084;28;20176;-59
2023/06/02 04:04:41;;;;;;;11.37;6.10;;;12.30;95.70;;;;;;5026331;28;20915;-59
2023/06/02 04:07:07;;;;;;;8.30;5.80;;;12.20;95.60;;;;;;5028824;28;20556;-59
2023/06/02 04:09:34;;;;;;;11.40;6.60;;;12.20;95.40;;;;;;5029476;28;20509;-60
2023/06/02 04:12:00;;;;;;;9.80;7.00;;;12.20;94.70;;;;;;5030019;28;20458;-60
2023/06/02 04:14:27;;;;;;;9.33;6.43;;;12.20;94.50;;;;;;5033030;28;20461;-60
2023/06/02 04:16:53;;;;;;;11.50;7.40;;;12.20;93.90;;;;;;5032805;28;20786;-59
2023/06/02 04:19:19;;;;;;;10.10;6.50;;;12.20;94.20;;;;;;5033214;28;20449;-60
2023/06/02 04:21:44;;;;;;;9.73;6.53;;;12.10;94.50;;;;;;5033611;28;20196;-59
2023/06/02 04:24:10;;;;;;;14.53;7.43;;;12.10;95.60;;;;;;5024072;28;20168;-56
2023/06/02 04:26:36;;;;;;;11.67;7.07;;;12.10;96.00;;;;;;5029206;28;20230;-58
2023/06/02 04:29:02;;;;;;;11.63;7.57;;;12.10;96.20;;;;;;5024553;28;20167;-60
2023/06/02 04:31:42;;;;;;;9.93;6.70;;;12.10;95.80;;;;;;5029034;28;20199;-58
2023/06/02 04:34:12;;;;;;;13.07;6.60;;;12.10;94.70;;;;;;5028501;28;20249;-58
2023/06/02 04:36:38;;;;;;;12.53;6.33;;;12.20;94.40;;;;;;5029186;28;20422;-59
2023/06/02 04:39:06;;;;;;;10.27;7.10;;;12.20;94.20;;;;;;5027208;28;20431;-59
2023/06/02 04:41:33;;;;;;;11.70;7.03;;;12.30;94.40;;;;;;5025298;28;20504;-59
2023/06/02 04:44:00;;;;;;;10.33;7.37;;;12.30;94.20;;;;;;5029412;28;20415;-59
2023/06/02 04:46:26;;;;;;;9.93;7.23;;;12.40;95.40;;;;;;5024567;28;20473;-59
2023/06/02 04:48:53;;;;;;;8.17;6.63;;;12.40;95.00;;;;;;5023960;28;20427;-58
2023/06/02 04:51:19;;;;;;;9.33;6.53;;;12.50;94.70;;;;;;5026149;28;21096;-59
2023/06/02 04:53:45;;;;;;;11.63;7.40;;;12.50;94.30;;;;;;5028664;28;20934;-59
2023/06/02 04:56:12;;;;;;;13.20;7.33;;;12.60;93.30;;;;;;5026940;28;20494;-59
2023/06/02 04:58:37;;;;;;;9.30;6.87;;;12.70;91.40;;;;;;5027862;28;20485;-59
2023/06/02 05:01:03;;;;;;;14.83;7.70;;;12.70;91.00;;;;;;5023687;28;20950;-59
2023/06/02 05:03:29;;;;;;;17.63;7.23;;;12.70;91.00;;;;;;5029154;28;20241;-59
2023/06/02 05:05:55;;;;;;;9.70;7.47;;;12.70;92.30;;;;;;5021548;28;20172;-59
2023/06/02 05:08:21;;;;;;;15.17;8.00;;;12.80;91.70;;;;;;5022063;28;20188;-59
2023/06/02 05:10:47;;;;;;;10.80;8.03;;;12.80;92.40;;;;;;5024650;28;20254;-59
2023/06/02 05:13:14;;;;;;;11.30;7.93;;;12.90;91.40;;;;;;5025551;28;20426;-58
2023/06/02 05:15:39;;;;;;;11.27;7.90;;;13.00;90.90;;;;;;5028261;28;20187;-59
2023/06/02 05:18:05;;;;;;;14.40;8.70;;;13.10;91.00;;;;;;5025778;28;20450;-59
2023/06/02 05:20:30;;;;;;;16.20;7.77;;;13.10;93.00;;;;;;5028766;28;20241;-59
2023/06/02 05:22:56;;;;;;;14.27;8.80;;;13.20;93.60;;;;;;5023422;28;20175;-58
2023/06/02 05:25:21;;;;;;;10.43;7.97;;;13.40;91.80;;;;;;5024239;28;20176;-59
2023/06/02 05:27:47;;;;;;;11.63;8.10;;;13.40;90.10;;;;;;5025399;28;20702;-59
2023/06/02 05:30:14;;;;;;;16.57;8.07;;;13.50;88.10;;;;;;5028094;28;20195;-59
2023/06/02 05:32:40;;;;;;;16.73;8.87;;;13.60;86.40;;;;;;5023618;28;20193;-58
2023/06/02 05:35:06;;;;;;;13.37;9.53;;;13.70;86.20;;;;;;5019525;28;20430;-58
2023/06/02 05:37:31;;;;;;;11.73;8.77;;;13.80;86.00;;;;;;5026809;28;20291;-59
2023/06/02 05:39:57;;;;;;;9.57;7.70;;;13.90;83.30;;;;;;5020969;28;20510;-60
2023/06/02 05:42:24;;;;;;;15.43;9.37;;;14.00;85.00;;;;;;5025630;28;20255;-60
2023/06/02 05:44:50;;;;;;;15.43;9.37;;;14.10;83.70;;;;;;5025134;28;20172;-59
2023/06/02 05:47:16;;;;;;;15.70;9.30;;;14.20;82.50;;;;;;5027834;28;20628;-60
2023/06/02 05:49:41;;;;;;;21.60;9.03;;;14.20;81.50;;;;;;5024423;28;20544;-59
2023/06/02 05:52:07;;;;;;;17.03;8.73;;;14.40;82.30;;;;;;5025588;28;20175;-60
2023/06/02 05:54:33;;;;;;;15.97;8.77;;;14.50;81.20;;;;;;5026888;28;20256;-57
2023/06/02 05:56:58;;;;;;;13.80;8.00;;;14.60;81.50;;;;;;5022288;28;20287;-59
2023/06/02 05:59:24;;;;;;;15.03;8.00;;;14.70;81.10;;;;;;5021893;28;20176;-60
2023/06/02 06:01:50;;;;;;;18.77;8.93;;;14.80;78.30;;;;;;5020860;28;20255;-58
2023/06/02 06:04:15;;;;;;;16.20;8.43;;;14.90;77.20;;;;;;5025312;28;20180;-60
2023/06/02 06:06:41;;;;;;;19.80;8.60;;;14.90;75.90;;;;;;5022616;28;20238;-59
2023/06/02 06:09:06;;;;;;;15.50;8.20;;;15.00;74.60;;;;;;5024628;28;20172;-59
2023/06/02 06:11:32;;;;;;;17.70;8.27;;;15.10;72.40;;;;;;5026491;28;20226;-58
2023/06/02 06:14:00;;;;;;;17.87;8.07;;;15.20;72.10;;;;;;5027351;28;20184;-59
2023/06/02 06:16:26;;;;;;;18.40;9.10;;;15.20;71.70;;;;;;5025282;28;20457;-59
2023/06/02 06:18:52;;;;;;;20.27;8.70;;;15.30;70.30;;;;;;5023453;28;20497;-59
2023/06/02 06:21:18;;;;;;;14.90;8.40;;;15.40;69.80;;;;;;5027252;28;20442;-59
2023/06/02 06:23:43;;;;;;;19.00;7.83;;;15.50;70.30;;;;;;5026580;28;20192;-60
2023/06/02 06:26:09;;;;;;;17.03;7.20;;;15.60;70.40;;;;;;5023194;28;20176;-59
2023/06/02 06:28:35;;;;;;;20.00;8.00;;;15.70;70.90;;;;;;5023583;28;20196;-58
2023/06/02 06:31:00;;;;;;;20.57;8.67;;;15.80;69.40;;;;;;5026822;28;20875;-59
2023/06/02 06:33:26;;;;;;;10.77;7.23;;;15.80;67.60;;;;;;5027191;28;20186;-59
2023/06/02 06:35:51;;;;;;;14.97;8.20;;;16.00;67.60;;;;;;5027950;28;20192;-60
2023/06/02 06:38:17;;;;;;;16.53;7.60;;;16.10;67.60;;;;;;5025429;28;20204;-59
2023/06/02 06:40:43;;;;;;;12.03;7.80;;;16.20;67.40;;;;;;5021319;28;20246;-59
2023/06/02 06:43:09;;;;;;;14.03;8.00;;;16.40;66.60;;;;;;5026064;28;20637;-59
2023/06/02 06:45:35;;;;;;;14.97;7.60;;;16.50;64.90;;;;;;5027833;28;20423;-60
2023/06/02 06:48:00;;;;;;;12.30;7.03;;;16.60;64.60;;;;;;5025002;28;20210;-59
2023/06/02 06:50:26;;;;;;;17.10;7.37;;;16.70;65.50;;;;;;5022162;28;20204;-60
2023/06/02 06:52:51;;;;;;;13.73;7.17;;;16.80;63.50;;;;;;5022800;28;20190;-60
2023/06/02 06:55:17;;;;;;;12.07;6.93;;;16.90;63.30;;;;;;5022570;28;20258;-59
2023/06/02 06:57:43;;;;;;;10.50;6.50;;;17.10;61.00;;;;;;5025270;28;20215;-60
2023/06/02 07:00:09;;;;;;;9.07;7.03;;;17.20;61.80;;;;;;5025500;28;20207;-60
2023/06/02 07:02:34;;;;;;;12.23;7.17;;;17.40;61.40;;;;;;5027040;28;20605;-60
2023/06/02 07:05:00;;;;;;;9.03;6.00;;;17.50;61.10;;;;;;5026089;28;20460;-60
2023/06/02 07:07:25;;;;;;;12.60;6.50;;;17.60;61.30;;;;;;5026497;28;20226;-59
2023/06/02 07:09:52;;;;;;;13.50;7.23;;;17.90;61.20;;;;;;5026292;28;20326;-59
2023/06/02 07:12:18;;;;;;;10.03;6.40;;;18.00;60.80;;;;;;5026819;28;20572;-60
2023/06/02 07:14:43;;;;;;;10.13;6.20;;;18.20;59.70;;;;;;5019629;28;20442;-58
2023/06/02 07:17:09;;;;;;;12.00;6.63;;;18.40;58.30;;;;;;5026124;28;20251;-61
2023/06/02 07:19:35;;;;;;;8.63;6.37;;;18.40;56.50;;;;;;5020210;28;20180;-60
2023/06/02 07:22:00;;;;;;;8.43;6.90;;;18.40;56.30;;;;;;5029560;28;20604;-60
2023/06/02 07:24:26;;;;;;;8.50;5.60;;;18.40;56.70;;;;;;5029312;28;20229;-60
2023/06/02 07:26:51;;;;;;;10.60;6.40;;;18.50;56.70;;;;;;5030556;28;20180;-57
2023/06/02 07:29:18;;;;;;;11.73;5.70;;;18.60;55.50;;;;;;5026734;28;21437;-57
2023/06/02 07:31:43;;;;;;;9.40;6.20;;;18.60;55.90;;;;;;5026357;28;20199;-57
2023/06/02 07:34:09;;;;;;;15.73;6.23;;;18.70;56.20;;;;;;5028293;28;20433;-57
2023/06/02 07:36:35;;;;;;;13.43;5.60;;;18.80;56.30;;;;;;5019078;28;20192;-57
2023/06/02 07:39:00;;;;;;;11.03;5.30;;;18.90;55.70;;;;;;5023665;28;20211;-58
2023/06/02 07:41:27;;;;;;;10.20;5.20;;;19.00;54.70;;;;;;5028483;28;20187;-57
2023/06/02 07:43:53;;;;;;;8.57;5.30;;;19.10;53.40;;;;;;5023414;28;20190;-57
2023/06/02 07:46:19;;;;;;;9.53;5.57;;;19.20;53.20;;;;;;5021629;28;20432;-57
2023/06/02 07:48:45;;;;;;;10.03;5.40;;;19.30;53.30;;;;;;5026230;28;20533;-56
2023/06/02 07:51:10;;;;;;;6.77;4.83;;;19.40;53.60;;;;;;5025938;28;20242;-57
2023/06/02 07:53:36;;;;;;;10.13;6.03;;;19.50;53.00;;;;;;5023116;28;20661;-57
2023/06/02 07:56:02;;;;;;;8.87;5.07;;;19.60;52.10;;;;;;5025472;28;20226;-56
2023/06/02 07:58:27;;;;;;;12.13;5.90;;;19.60;52.30;;;;;;5023695;28;20298;-57
2023/06/02 08:00:53;;;;;;;11.37;4.97;;;19.70;52.30;;;;;;5028519;28;20359;-57
2023/06/02 08:03:19;;;;;;;16.00;5.00;;;19.80;51.40;;;;;;5023459;28;20181;-57
2023/06/02 08:05:45;;;;;;;7.40;5.10;;;19.80;51.40;;;;;;5024313;28;20177;-56
2023/06/02 08:08:11;;;;;;;7.10;4.90;;;19.90;51.80;;;;;;5023933;28;20180;-56
2023/06/02 08:10:37;;;;;;;6.90;4.93;;;19.90;52.00;;;;;;5026391;28;20458;-56
2023/06/02 08:13:02;;;;;;;6.50;5.43;;;20.10;52.60;;;;;;5029557;28;20214;-58
2023/06/02 08:15:28;;;;;;;9.00;4.97;;;20.20;53.10;;;;;;5020471;28;20211;-57
2023/06/02 08:17:53;;;;;;;8.70;5.20;;;20.30;51.60;;;;;;5028787;28;20210;-58
2023/06/02 08:20:19;;;;;;;7.93;4.80;;;20.30;50.40;;;;;;5026263;28;20730;-58
2023/06/02 08:22:45;;;;;;;11.60;4.70;;;20.40;51.30;;;;;;5025836;28;20699;-57
2023/06/02 08:25:12;;;;;;;8.30;4.40;;;20.50;51.90;;;;;;5013315;28;20177;-56
2023/06/02 08:27:38;;;;;;;5.87;3.20;;;20.60;52.00;;;;;;5026513;28;20287;-57
2023/06/02 08:30:05;;;;;;;6.23;4.10;;;20.70;51.10;;;;;;5022914;28;20462;-57
2023/06/02 08:32:31;;;;;;;7.23;3.40;;;20.80;50.10;;;;;;5024322;28;20464;-55
2023/06/02 08:35:01;;;;;;;6.17;3.70;;;20.90;49.20;;;;;;5021187;28;20919;-57
2023/06/02 08:37:27;;;;;;;5.20;3.20;;;21.00;48.50;;;;;;5025418;28;20215;-57
2023/06/02 08:39:53;;;;;;;6.23;2.90;;;21.10;49.10;;;;;;5019118;28;20431;-57
2023/06/02 08:42:20;;;;;;;7.43;3.70;;;21.20;48.20;;;;;;5014490;28;20439;-57
2023/06/02 08:44:46;;;;;;;9.33;4.20;;;21.40;48.10;;;;;;5014261;28;20180;-55
2023/06/02 08:47:12;;;;;;;6.03;3.67;;;21.40;47.90;;;;;;5026390;28;20475;-57
2023/06/02 08:49:48;;;;;;;5.33;3.47;;;21.50;47.90;;;;;;5025494;28;20230;-57
2023/06/02 08:52:21;;;;;;;7.37;3.83;;;21.60;47.60;;;;;;5020969;28;20444;-58
2023/06/02 08:54:47;;;;;;;4.90;3.33;;;21.70;47.00;;;;;;5027264;28;20464;-57
2023/06/02 08:57:16;;;;;;;4.73;3.53;;;21.80;46.40;;;;;;5018965;28;20571;-55
2023/06/02 08:59:43;;;;;;;7.30;3.30;;;21.90;46.30;;;;;;5022557;28;20441;-57
2023/06/02 09:02:09;;;;;;;7.40;3.80;;;21.90;45.00;;;;;;5026999;28;20453;-57
2023/06/02 09:04:35;;;;;;;4.77;3.30;;;22.10;44.90;;;;;;5026530;28;20454;-58
2023/06/02 09:07:12;;;;;;;6.40;3.53;;;22.20;45.10;;;;;;5025446;28;20180;-57
2023/06/02 09:09:43;;;;;;;5.00;3.23;;;22.40;44.00;;;;;;5019608;28;20199;-57
2023/06/02 09:12:09;;;;;;;12.40;3.83;;;22.40;43.30;;;;;;5026929;28;20960;-58
2023/06/02 09:14:35;;;;;;;5.33;3.10;;;22.30;41.70;;;;;;5024021;28;20492;-57
2023/06/02 09:17:01;;;;;;;5.77;3.03;;;22.30;41.20;;;;;;5028546;28;20421;-56
2023/06/02 09:19:29;;;;;;;4.57;3.13;;;22.30;42.50;;;;;;5020670;28;20435;-59
2023/06/02 09:22:04;;;;;;;4.23;3.30;;;22.40;42.80;;;;;;5027253;28;20231;-59
2023/06/02 09:24:32;;;;;;;5.60;3.47;;;22.70;43.20;;;;;;5022418;28;20931;-57
2023/06/02 09:26:58;;;;;;;6.57;4.00;;;22.90;43.00;;;;;;5020369;28;21144;-57
2023/06/02 09:29:24;;;;;;;11.57;3.80;;;23.10;43.20;;;;;;5020407;28;20433;-58
2023/06/02 09:31:52;;;;;;;5.67;3.47;;;23.30;43.20;;;;;;5025070;28;20542;-59
2023/06/02 09:34:19;;;;;;;5.37;4.03;;;23.40;42.20;;;;;;5022250;28;20384;-58
2023/06/02 09:36:49;;;;;;;5.97;4.10;;;23.50;42.20;;;;;;5021207;28;20441;-57
2023/06/02 09:39:34;;;;;;;4.93;3.33;;;23.60;42.10;;;;;;5022138;28;20807;-55
2023/06/02 09:42:00;;;;;;;4.80;4.00;;;23.80;41.60;;;;;;5015616;28;20586;-58
2023/06/02 09:44:26;;;;;;;6.57;4.10;;;23.80;40.30;;;;;;5023906;28;20438;-57
2023/06/02 09:46:53;;;;;;;9.07;4.00;;;23.70;40.10;;;;;;5025042;28;20474;-58
2023/06/02 09:49:19;;;;;;;4.90;3.70;;;23.60;38.80;;;;;;5019254;28;20271;-56
2023/06/02 09:51:44;;;;;;;8.10;3.47;;;23.50;40.30;;;;;;5027263;28;20525;-58
2023/06/02 09:54:11;;;;;;;4.70;3.80;;;23.60;41.70;;;;;;5027672;28;20502;-59
2023/06/02 09:56:38;;;;;;;7.97;4.23;;;23.80;42.60;;;;;;5022180;28;20188;-58
2023/06/02 09:59:05;;;;;;;5.20;4.30;;;24.00;42.50;;;;;;5021175;28;20498;-58
2023/06/02 10:01:32;;;;;;;9.70;4.43;;;24.10;41.80;;;;;;5022386;28;20537;-58
2023/06/02 10:03:57;;;;;;;8.03;4.90;;;24.10;43.40;;;;;;5020204;28;20747;-59
2023/06/02 10:06:50;;;;;;;7.70;4.67;;;24.20;43.70;;;;;;5025018;28;20443;-58
2023/06/02 10:09:27;;;;;;;6.37;4.23;;;24.10;44.30;;;;;;5022171;28;20198;-57
2023/06/02 10:12:26;;;;;;;9.73;4.43;;;23.90;44.20;;;;;;5026398;28;20458;-59
2023/06/02 10:15:07;;;;;;;24.57;5.40;;;23.60;44.70;;;;;;5025380;28;20446;-59
2023/06/02 10:17:33;;;;;;;12.63;5.00;;;23.30;45.60;;;;;;5023276;28;21182;-58
2023/06/02 10:20:21;;;;;;;12.07;5.20;;;23.10;46.00;;;;;;5026167;28;20946;-58
2023/06/02 10:23:10;;;;;;;8.30;4.60;;;23.00;46.30;;;;;;5025395;28;20184;-57
2023/06/02 10:26:07;;;;;;;15.70;5.93;;;23.00;45.50;;;;;;5023702;28;20430;-58
2023/06/02 10:28:34;;;;;;;6.23;4.37;;;23.20;47.00;;;;;;5020215;28;20427;-55
2023/06/02 10:31:07;;;;;;;8.70;4.87;;;23.70;47.80;;;;;;5025149;28;20454;-56
2023/06/02 10:33:46;;;;;;;7.20;5.20;;;24.00;47.40;;;;;;5026869;28;21008;-56
2023/06/02 10:36:17;;;;;;;8.03;4.40;;;24.40;47.70;;;;;;5024228;28;20427;-56
2023/06/02 10:38:45;;;;;;;6.80;4.60;;;24.40;46.50;;;;;;5022156;28;20972;-56
2023/06/02 10:41:13;;;;;;;10.80;4.00;;;24.30;46.00;;;;;;5021956;28;21041;-56
2023/06/02 10:43:38;;;;;;;11.20;4.77;;;24.10;45.40;;;;;;5027260;28;20464;-57
2023/06/02 10:46:24;;;;;;;8.70;5.27;;;23.90;44.40;;;;;;5027047;28;20430;-55
2023/06/02 10:48:50;;;;;;;5.87;4.00;;;23.70;44.20;;;;;;5020072;28;20183;-56
2023/06/02 10:51:16;;;;;;;9.47;4.40;;;23.60;44.10;;;;;;5019275;28;20462;-54
2023/06/02 10:54:02;;;;;;;8.63;4.40;;;23.60;44.30;;;;;;5021264;28;20564;-57
2023/06/02 10:56:40;;;;;;;8.47;4.50;;;23.70;44.80;;;;;;5029866;28;20396;-57
2023/06/02 10:59:07;;;;;;;8.20;5.03;;;24.10;44.50;;;;;;5029601;28;20469;-59
2023/06/02 11:01:51;;;;;;;9.33;5.00;;;24.40;46.30;;;;;;5031468;28;20450;-57
2023/06/02 11:04:27;;;;;;;8.27;4.60;;;24.70;45.50;;;;;;5026107;28;20950;-57
2023/06/02 11:07:28;;;;;;;6.67;4.93;;;25.10;45.70;;;;;;5028795;28;20787;-57
2023/06/02 11:09:59;;;;;;;11.27;5.30;;;25.40;45.30;;;;;;5024519;28;20430;-56
2023/06/02 11:12:50;;;;;;;10.43;5.00;;;25.70;43.30;;;;;;5024987;28;20953;-57
2023/06/02 11:15:19;;;;;;;7.43;5.00;;;25.80;42.00;;;;;;5024350;28;20457;-57
2023/06/02 11:17:48;;;;;;;5.90;4.60;;;25.90;43.80;;;;;;5027788;28;20466;-57
2023/06/02 11:20:16;;;;;;;9.53;5.00;;;26.10;44.10;;;;;;5022020;28;20454;-57
2023/06/02 11:22:42;;;;;;;16.93;6.27;;;26.40;45.00;;;;;;5028328;28;20432;-56
2023/06/02 11:25:13;;;;;;;8.60;4.60;;;26.60;43.10;;;;;;5026122;28;20470;-56
2023/06/02 11:27:40;;;;;;;7.27;4.73;;;26.70;41.60;;;;;;5018291;28;20472;-57
2023/06/02 11:30:14;;;;;;;6.53;4.47;;;26.80;41.10;;;;;;5024810;28;20511;-56
2023/06/02 11:32:41;;;;;;;8.03;4.97;;;27.00;40.80;;;;;;5024515;28;20485;-57
2023/06/02 11:35:09;;;;;;;5.80;4.87;;;27.10;40.90;;;;;;5029230;28;20425;-57
2023/06/02 11:37:36;;;;;;;9.50;5.23;;;27.30;42.90;;;;;;5029378;28;20222;-58
2023/06/02 11:40:05;;;;;;;39.97;6.90;;;27.40;43.50;;;;;;5027543;28;20218;-57
2023/06/02 11:42:37;;;;;;;10.03;5.13;;;27.50;43.00;;;;;;5029660;28;20176;-57
2023/06/02 11:45:04;;;;;;;12.13;5.30;;;27.40;42.40;;;;;;5025366;28;20182;-58
2023/06/02 11:47:30;;;;;;;7.67;5.37;;;27.40;43.10;;;;;;5025860;28;20206;-56
2023/06/02 11:49:56;;;;;;;6.00;4.50;;;27.50;42.40;;;;;;5020356;28;20183;-56
2023/06/02 11:52:22;;;;;;;8.80;5.40;;;27.60;42.20;;;;;;5026607;28;20186;-57
2023/06/02 11:54:52;;;;;;;9.33;4.60;;;27.70;41.30;;;;;;5024759;28;20676;-57
2023/06/02 11:57:29;;;;;;;5.77;4.80;;;27.60;40.40;;;;;;5023163;28;20203;-56
2023/06/02 12:00:12;;;;;;;8.07;5.10;;;27.20;40.30;;;;;;5023444;28;20262;-56
2023/06/02 12:02:48;;;;;;;6.43;5.23;;;26.80;41.30;;;;;;5026555;28;20558;-57
2023/06/02 12:05:35;;;;;;;8.73;4.73;;;26.30;41.30;;;;;;5022950;28;20168;-56
2023/06/02 12:08:27;;;;;;;5.90;4.30;;;25.90;41.90;;;;;;5021442;28;20268;-55
2023/06/02 12:10:55;;;;;;;10.43;5.23;;;25.50;42.50;;;;;;5025626;28;20276;-57
2023/06/02 12:13:29;;;;;;;9.70;5.10;;;25.30;43.90;;;;;;5023702;28;20520;-57
2023/06/02 12:15:55;;;;;;;9.90;5.10;;;25.10;43.80;;;;;;5024435;28;20489;-57
2023/06/02 12:18:31;;;;;;;7.93;5.23;;;24.90;43.80;;;;;;5026818;28;20544;-57
2023/06/02 12:20:59;;;;;;;12.50;5.20;;;24.80;43.60;;;;;;5018837;28;20761;-57
2023/06/02 12:23:44;;;;;;;9.60;4.83;;;24.80;43.60;;;;;;5015194;28;20493;-58
2023/06/02 12:26:10;;;;;;;5.30;4.80;;;25.20;44.10;;;;;;5020306;28;20422;-56
2023/06/02 12:28:38;;;;;;;10.30;4.80;;;25.70;43.00;;;;;;5015989;28;20441;-54
2023/06/02 12:31:04;;;;;;;7.77;5.53;;;25.90;42.90;;;;;;5026010;28;20235;-58
2023/06/02 12:33:29;;;;;;;5.87;4.70;;;26.10;42.00;;;;;;5027297;28;20490;-56
2023/06/02 12:35:55;;;;;;;7.43;4.77;;;26.00;41.70;;;;;;5022642;28;20783;-56
2023/06/02 12:38:21;;;;;;;8.00;5.20;;;26.10;42.00;;;;;;5016419;28;20203;-58
2023/06/02 12:40:47;;;;;;;7.73;4.80;;;26.20;41.70;;;;;;5020430;28;20203;-55
2023/06/02 12:43:13;;;;;;;10.10;4.40;;;26.50;41.80;;;;;;5017697;28;20175;-57
2023/06/02 12:45:39;;;;;;;7.27;4.00;;;26.90;41.20;;;;;;5017739;28;20405;-57
2023/06/02 12:48:05;;;;;;;7.27;4.70;;;27.20;41.10;;;;;;5017221;28;20919;-57